createdAt,value
2023-05-01T00:01:54.321Z,7.52
2023-05-01T00:04:22.845Z,7.49
2023-05-01T00:06:51.434Z,7.36
2023-05-01T00:09:19.981Z,7.20
2023-05-01T00:11:48.449Z,7.07
2023-05-01T00:14:16.581Z,7.08
2023-05-01T00:16:46.868Z,7.12
2023-05-01T00:19:18.715Z,7.19
2023-05-01T00:21:48.646Z,7.27
2023-05-01T00:24:17.386Z,7.33
2023-05-01T00:26:46.213Z,7.25
2023-05-01T00:29:14.608Z,7.21
2023-05-01T00:31:43.513Z,7.18
2023-05-01T00:34:11.916Z,7.11
2023-05-01T00:36:40.348Z,7.13
2023-05-01T00:39:09.136Z,7.13
2023-05-01T00:41:37.530Z,7.17
2023-05-01T00:44:05.904Z,7.15
2023-05-01T00:46:35.232Z,7.12
2023-05-01T00:49:04.715Z,7.06
2023-05-01T00:51:34.313Z,7.06
2023-05-01T00:54:03.850Z,7.04
2023-05-01T00:56:32.311Z,6.98
2023-05-01T00:59:01.245Z,6.91
2023-05-01T01:01:29.802Z,6.89
2023-05-01T01:03:58.008Z,6.90
2023-05-01T01:06:31.620Z,6.88
2023-05-01T01:08:59.938Z,6.86
2023-05-01T01:11:43.209Z,6.84
2023-05-01T01:14:25.279Z,6.81
2023-05-01T01:16:53.904Z,6.76
2023-05-01T01:20:01.670Z,6.81
2023-05-01T01:22:31.188Z,6.82
2023-05-01T01:25:11.763Z,6.72
2023-05-01T01:27:56.042Z,6.71
2023-05-01T01:30:53.377Z,6.69
2023-05-01T01:33:55.557Z,6.74
2023-05-01T01:36:46.953Z,6.84
2023-05-01T01:39:44.629Z,6.85
2023-05-01T01:42:18.374Z,6.81
2023-05-01T01:44:54.920Z,6.75
2023-05-01T01:47:34.182Z,6.72
2023-05-01T01:50:06.954Z,6.76
2023-05-01T01:52:37.535Z,6.80
2023-05-01T01:55:09.797Z,6.75
2023-05-01T01:57:40.204Z,6.79
2023-05-01T02:00:11.450Z,6.80
2023-05-01T02:02:47.080Z,6.84
2023-05-01T02:05:18.294Z,6.78
2023-05-01T02:07:50.328Z,6.78
2023-05-01T02:10:20.109Z,6.70
2023-05-01T02:12:51.781Z,6.67
2023-05-01T02:15:21.529Z,6.65
2023-05-01T02:17:51.453Z,6.63
2023-05-01T02:20:21.692Z,6.60
2023-05-01T02:22:53.691Z,6.68
2023-05-01T02:25:22.435Z,6.72
2023-05-01T02:27:56.847Z,6.70
2023-05-01T02:30:25.163Z,6.59
2023-05-01T02:32:54.273Z,6.41
2023-05-01T02:35:22.582Z,6.37
2023-05-01T02:37:51.583Z,6.34
2023-05-01T02:40:20.203Z,6.29
2023-05-01T02:42:52.207Z,6.24
2023-05-01T02:45:25.490Z,6.25
2023-05-01T02:47:59.982Z,6.32
2023-05-01T02:50:29.689Z,6.25
2023-05-01T02:52:59.339Z,6.25
2023-05-01T02:55:45.330Z,6.30
2023-05-01T02:58:20.820Z,6.29
2023-05-01T03:00:50.209Z,6.25
2023-05-01T03:03:19.555Z,6.11
2023-05-01T03:05:48.173Z,6.16
2023-05-01T03:08:16.398Z,6.17
2023-05-01T03:10:44.575Z,6.11
2023-05-01T03:13:12.770Z,6.02
2023-05-01T03:15:41.495Z,6.10
2023-05-01T03:18:09.993Z,6.14
2023-05-01T03:20:38.374Z,6.09
2023-05-01T03:23:07.033Z,6.09
2023-05-01T03:25:35.498Z,6.10
2023-05-01T03:28:04.244Z,6.00
2023-05-01T03:30:35.137Z,6.01
2023-05-01T03:33:03.625Z,6.03
2023-05-01T03:35:32.834Z,6.07
2023-05-01T03:38:01.382Z,6.13
2023-05-01T03:40:48.532Z,6.17
2023-05-01T03:43:35.543Z,6.18
2023-05-01T03:46:07.498Z,6.23
2023-05-01T03:48:36.378Z,6.29
2023-05-01T03:51:05.281Z,6.30
2023-05-01T03:53:34.056Z,6.39
2023-05-01T03:56:04.850Z,6.45
2023-05-01T03:58:33.180Z,6.50
2023-05-01T04:01:03.102Z,6.54
2023-05-01T04:03:31.680Z,6.58
2023-05-01T04:06:00.023Z,6.62
2023-05-01T04:08:28.489Z,6.70
2023-05-01T04:10:57.133Z,6.63
2023-05-01T04:13:25.496Z,6.62
2023-05-01T04:15:57.803Z,6.68
2023-05-01T04:18:27.389Z,6.75
2023-05-01T04:20:59.668Z,6.83
2023-05-01T04:23:28.177Z,6.88
2023-05-01T04:25:58.691Z,6.94
2023-05-01T04:28:28.193Z,6.97
2023-05-01T04:30:58.325Z,6.88
2023-05-01T04:33:28.390Z,6.86
2023-05-01T04:35:57.008Z,6.86
2023-05-01T04:38:25.709Z,6.85
2023-05-01T04:40:56.432Z,6.90
2023-05-01T04:43:24.847Z,6.97
2023-05-01T04:45:54.738Z,7.05
2023-05-01T04:48:23.234Z,7.16
2023-05-01T04:50:51.552Z,7.22
2023-05-01T04:53:20.001Z,7.33
2023-05-01T04:55:48.502Z,7.45
2023-05-01T04:58:17.660Z,7.53
2023-05-01T05:00:47.574Z,7.85
2023-05-01T05:03:21.521Z,8.25
2023-05-01T05:05:49.972Z,8.37
2023-05-01T05:08:18.655Z,8.81
2023-05-01T05:11:02.504Z,9.61
2023-05-01T05:13:35.115Z,10.21
2023-05-01T05:16:06.337Z,10.70
2023-05-01T05:18:34.593Z,11.37
2023-05-01T05:21:05.184Z,11.68
2023-05-01T05:23:33.677Z,12.06
2023-05-01T05:26:03.220Z,12.24
2023-05-01T05:28:32.237Z,12.54
2023-05-01T05:31:00.706Z,13.22
2023-05-01T05:33:29.177Z,13.93
2023-05-01T05:36:00.276Z,14.00
2023-05-01T05:38:33.016Z,14.41
2023-05-01T05:41:01.974Z,14.99
2023-05-01T05:43:30.388Z,15.33
2023-05-01T05:45:59.988Z,15.24
2023-05-01T05:48:28.388Z,15.01
2023-05-01T05:50:57.599Z,15.22
2023-05-01T05:53:26.384Z,15.68
2023-05-01T05:55:55.186Z,16.13
2023-05-01T05:58:24.782Z,16.67
2023-05-01T06:00:58.996Z,16.81
2023-05-01T06:03:27.716Z,16.83
2023-05-01T06:05:59.415Z,17.11
2023-05-01T06:08:27.818Z,17.41
2023-05-01T06:10:56.727Z,17.90
2023-05-01T06:13:25.400Z,17.60
2023-05-01T06:15:54.251Z,17.70
2023-05-01T06:18:22.998Z,18.17
2023-05-01T06:20:52.385Z,18.33
2023-05-01T06:23:20.975Z,18.62
2023-05-01T06:26:00.875Z,19.24
2023-05-01T06:28:29.412Z,19.65
2023-05-01T06:30:57.723Z,19.58
2023-05-01T06:33:26.369Z,20.23
2023-05-01T06:36:12.564Z,20.54
2023-05-01T06:38:45.042Z,21.29
2023-05-01T06:41:13.171Z,21.59
2023-05-01T06:43:41.601Z,21.99
2023-05-01T06:46:10.248Z,21.13
2023-05-01T06:48:38.484Z,20.94
2023-05-01T06:51:06.745Z,20.74
2023-05-01T06:53:35.057Z,20.99
2023-05-01T06:56:03.293Z,21.39
2023-05-01T06:58:31.735Z,21.50
2023-05-01T07:01:00.116Z,20.88
2023-05-01T07:03:28.671Z,20.95
2023-05-01T07:05:56.967Z,20.73
2023-05-01T07:08:25.316Z,20.58
2023-05-01T07:10:54.332Z,20.75
2023-05-01T07:13:22.720Z,20.62
2023-05-01T07:15:53.859Z,20.19
2023-05-01T07:18:22.846Z,20.02
2023-05-01T07:20:51.210Z,20.01
2023-05-01T07:23:20.146Z,19.94
2023-05-01T07:25:48.279Z,20.11
2023-05-01T07:28:18.388Z,20.01
2023-05-01T07:30:46.692Z,19.85
2023-05-01T07:33:15.019Z,20.47
2023-05-01T07:35:43.531Z,20.54
2023-05-01T07:38:12.242Z,20.23
2023-05-01T07:40:40.299Z,19.94
2023-05-01T07:43:11.385Z,20.32
2023-05-01T07:45:40.447Z,20.41
2023-05-01T07:48:08.791Z,19.97
2023-05-01T07:50:39.070Z,19.51
2023-05-01T07:53:07.429Z,19.63
2023-05-01T07:55:35.526Z,19.59
2023-05-01T07:58:03.685Z,19.65
2023-05-01T08:00:32.156Z,19.31
2023-05-01T08:03:00.616Z,19.12
2023-05-01T08:05:29.113Z,19.14
2023-05-01T08:07:57.347Z,19.06
2023-05-01T08:10:26.190Z,19.41
2023-05-01T08:12:54.561Z,19.50
2023-05-01T08:15:22.675Z,19.43
2023-05-01T08:17:51.834Z,19.03
2023-05-01T08:20:20.354Z,18.93
2023-05-01T08:22:48.815Z,19.18
2023-05-01T08:25:17.197Z,19.24
2023-05-01T08:27:45.524Z,19.39
2023-05-01T08:30:13.944Z,19.62
2023-05-01T08:32:42.510Z,19.45
2023-05-01T08:35:11.220Z,19.18
2023-05-01T08:37:39.499Z,18.94
2023-05-01T08:40:09.238Z,19.35
2023-05-01T08:42:39.139Z,19.47
2023-05-01T08:45:12.101Z,19.69
2023-05-01T08:47:41.096Z,20.13
2023-05-01T08:50:14.470Z,20.39
2023-05-01T08:52:44.089Z,20.68
2023-05-01T08:55:14.645Z,20.77
2023-05-01T08:57:46.101Z,20.60
2023-05-01T09:00:20.195Z,20.37
2023-05-01T09:02:50.879Z,20.63
2023-05-01T09:05:20.352Z,20.67
2023-05-01T09:07:48.949Z,21.09
2023-05-01T09:10:19.342Z,21.40
2023-05-01T09:12:53.069Z,21.22
2023-05-01T09:15:22.066Z,21.64
2023-05-01T09:17:51.142Z,21.71
2023-05-01T09:20:20.594Z,21.47
2023-05-01T09:22:50.529Z,21.19
2023-05-01T09:25:19.608Z,21.32
2023-05-01T09:27:47.969Z,21.27
2023-05-01T09:30:35.919Z,21.39
2023-05-01T09:33:08.939Z,20.99
2023-05-01T09:35:57.561Z,20.94
2023-05-01T09:38:28.124Z,20.66
2023-05-01T09:41:06.359Z,20.52
2023-05-01T09:43:34.489Z,20.44
2023-05-01T09:46:10.734Z,20.20
2023-05-01T09:48:39.770Z,20.20
2023-05-01T09:51:22.354Z,19.93
2023-05-01T09:53:52.529Z,19.63
2023-05-01T09:56:22.122Z,19.60
2023-05-01T09:58:52.133Z,19.41
2023-05-01T10:01:39.901Z,19.35
2023-05-01T10:04:12.658Z,19.60
2023-05-01T10:06:41.710Z,19.30
2023-05-01T10:09:17.569Z,19.39
2023-05-01T10:11:52.464Z,19.46
2023-05-01T10:14:21.510Z,19.42
2023-05-01T10:16:50.332Z,19.16
2023-05-01T10:19:18.934Z,19.15
2023-05-01T10:21:47.163Z,19.42
2023-05-01T10:24:17.202Z,19.55
2023-05-01T10:26:49.155Z,19.61
2023-05-01T10:29:21.204Z,19.80
2023-05-01T10:31:49.590Z,19.89
2023-05-01T10:34:22.320Z,19.99
2023-05-01T10:36:59.157Z,19.87
2023-05-01T10:39:35.813Z,19.85
2023-05-01T10:42:06.159Z,19.89
2023-05-01T10:44:35.323Z,19.98
2023-05-01T10:47:28.075Z,20.01
2023-05-01T10:50:07.400Z,20.04
2023-05-01T10:53:10.042Z,20.06
2023-05-01T10:55:46.915Z,20.27
2023-05-01T10:58:35.032Z,20.21
2023-05-01T11:01:31.729Z,19.95
2023-05-01T11:04:04.377Z,20.23
2023-05-01T11:06:32.985Z,20.37
2023-05-01T11:09:02.347Z,20.42
2023-05-01T11:11:30.693Z,20.50
2023-05-01T11:14:08.773Z,20.43
2023-05-01T11:16:42.820Z,20.33
2023-05-01T11:19:20.670Z,20.08
2023-05-01T11:21:50.750Z,20.25
2023-05-01T11:24:19.992Z,20.34
2023-05-01T11:26:49.598Z,20.33
2023-05-01T11:29:18.539Z,20.34
2023-05-01T11:31:48.792Z,20.38
2023-05-01T11:34:18.009Z,20.30
2023-05-01T11:36:51.112Z,20.30
2023-05-01T11:39:20.601Z,20.31
2023-05-01T11:41:49.122Z,20.41
2023-05-01T11:44:18.856Z,20.52
2023-05-01T11:46:57.575Z,20.55
2023-05-01T11:49:28.983Z,20.60
2023-05-01T11:52:00.140Z,20.52
2023-05-01T11:54:28.512Z,20.38
2023-05-01T11:57:01.235Z,20.19
2023-05-01T11:59:30.662Z,20.30
2023-05-01T12:01:58.981Z,20.27
2023-05-01T12:04:31.933Z,20.29
2023-05-01T12:07:00.779Z,20.33
2023-05-01T12:09:30.161Z,20.51
2023-05-01T12:12:01.150Z,20.56
2023-05-01T12:14:30.773Z,20.51
2023-05-01T12:17:00.394Z,20.58
2023-05-01T12:19:28.600Z,20.64
2023-05-01T12:22:07.677Z,20.75
2023-05-01T12:24:37.917Z,20.80
2023-05-01T12:27:09.398Z,20.68
2023-05-01T12:29:42.132Z,20.62
2023-05-01T12:32:10.833Z,20.68
2023-05-01T12:34:41.092Z,20.56
2023-05-01T12:37:10.341Z,20.50
2023-05-01T12:39:45.092Z,20.41
2023-05-01T12:42:15.313Z,20.44
2023-05-01T12:44:44.564Z,20.62
2023-05-01T12:47:13.368Z,20.76
2023-05-01T12:49:42.059Z,20.88
2023-05-01T12:52:10.437Z,21.00
2023-05-01T12:54:43.171Z,21.03
2023-05-01T12:57:16.527Z,20.90
2023-05-01T12:59:47.029Z,20.88
2023-05-01T13:02:18.479Z,20.85
2023-05-01T13:04:49.571Z,20.98
2023-05-01T13:07:19.703Z,21.04
2023-05-01T13:09:52.562Z,21.06
2023-05-01T13:12:21.617Z,21.01
2023-05-01T13:14:50.924Z,20.96
2023-05-01T13:17:26.366Z,21.03
2023-05-01T13:19:58.758Z,21.25
2023-05-01T13:22:37.566Z,21.39
2023-05-01T13:25:16.298Z,21.38
2023-05-01T13:27:50.008Z,21.27
2023-05-01T13:30:22.214Z,21.28
2023-05-01T13:32:50.575Z,21.27
2023-05-01T13:35:26.902Z,21.40
2023-05-01T13:37:55.186Z,21.47
2023-05-01T13:40:26.283Z,21.34
2023-05-01T13:42:54.819Z,21.35
2023-05-01T13:45:23.646Z,21.17
2023-05-01T13:47:52.262Z,20.99
2023-05-01T13:50:21.668Z,20.76
2023-05-01T13:52:49.975Z,20.39
2023-05-01T13:55:19.004Z,20.19
2023-05-01T13:57:47.192Z,20.01
2023-05-01T14:00:19.828Z,19.93
2023-05-01T14:02:49.208Z,20.12
2023-05-01T14:05:23.758Z,20.19
2023-05-01T14:07:58.516Z,20.23
2023-05-01T14:10:28.947Z,20.27
2023-05-01T14:13:01.444Z,20.39
2023-05-01T14:15:29.773Z,20.47
2023-05-01T14:18:01.241Z,20.55
2023-05-01T14:20:29.664Z,20.65
2023-05-01T14:23:00.151Z,20.72
2023-05-01T14:25:31.429Z,20.77
2023-05-01T14:28:01.158Z,20.81
2023-05-01T14:30:40.329Z,20.87
2023-05-01T14:33:11.582Z,20.87
2023-05-01T14:35:51.220Z,20.90
2023-05-01T14:38:21.567Z,20.93
2023-05-01T14:40:50.253Z,20.98
2023-05-01T14:43:21.855Z,20.94
2023-05-01T14:45:50.305Z,20.93
2023-05-01T14:48:23.677Z,21.00
2023-05-01T14:50:52.881Z,20.93
2023-05-01T14:53:21.677Z,20.95
2023-05-01T14:55:51.813Z,20.95
2023-05-01T14:58:20.176Z,20.91
2023-05-01T15:00:48.375Z,20.88
2023-05-01T15:03:17.040Z,20.87
2023-05-01T15:05:46.394Z,20.85
2023-05-01T15:08:14.574Z,20.76
2023-05-01T15:10:43.821Z,20.70
2023-05-01T15:13:12.364Z,20.67
2023-05-01T15:15:40.765Z,20.60
2023-05-01T15:18:09.216Z,20.59
2023-05-01T15:20:37.984Z,20.60
2023-05-01T15:23:06.549Z,20.62
2023-05-01T15:25:34.823Z,20.54
2023-05-01T15:28:03.742Z,20.49
2023-05-01T15:30:32.358Z,20.39
2023-05-01T15:33:01.331Z,20.21
2023-05-01T15:35:30.294Z,20.01
2023-05-01T15:37:58.509Z,19.89
2023-05-01T15:40:26.960Z,19.88
2023-05-01T15:42:55.032Z,19.88
2023-05-01T15:45:23.406Z,19.90
2023-05-01T15:47:52.049Z,19.80
2023-05-01T15:50:21.934Z,19.63
2023-05-01T15:52:51.124Z,19.49
2023-05-01T15:55:20.002Z,19.43
2023-05-01T15:57:49.004Z,19.45
2023-05-01T16:00:19.475Z,19.46
2023-05-01T16:02:47.986Z,19.44
2023-05-01T16:05:19.456Z,19.42
2023-05-01T16:07:54.050Z,19.41
2023-05-01T16:10:23.599Z,19.38
2023-05-01T16:12:53.661Z,19.27
2023-05-01T16:15:22.887Z,19.13
2023-05-01T16:17:52.167Z,18.99
2023-05-01T16:20:21.333Z,18.86
2023-05-01T16:22:49.900Z,18.80
2023-05-01T16:25:18.327Z,18.71
2023-05-01T16:27:47.597Z,18.68
2023-05-01T16:30:16.966Z,18.63
2023-05-01T16:32:46.356Z,18.53
2023-05-01T16:35:18.204Z,18.41
2023-05-01T16:37:46.732Z,18.30
2023-05-01T16:40:18.702Z,18.20
2023-05-01T16:42:54.784Z,18.09
2023-05-01T16:45:23.112Z,17.99
2023-05-01T16:47:51.742Z,17.96
2023-05-01T16:50:22.353Z,17.89
2023-05-01T16:52:52.471Z,17.80
2023-05-01T16:55:21.579Z,17.73
2023-05-01T16:57:49.641Z,17.65
2023-05-01T17:00:18.643Z,17.55
2023-05-01T17:02:50.013Z,17.47
2023-05-01T17:05:18.486Z,17.41
2023-05-01T17:07:46.711Z,17.32
2023-05-01T17:10:15.141Z,17.26
2023-05-01T17:12:43.957Z,17.20
2023-05-01T17:15:12.123Z,17.11
2023-05-01T17:17:40.602Z,17.05
2023-05-01T17:20:09.815Z,16.96
2023-05-01T17:22:38.060Z,16.88
2023-05-01T17:25:07.299Z,16.77
2023-05-01T17:27:35.640Z,16.68
2023-05-01T17:30:07.296Z,16.54
2023-05-01T17:32:37.406Z,16.44
2023-05-01T17:35:06.726Z,16.33
2023-05-01T17:37:35.020Z,16.24
2023-05-01T17:40:05.090Z,16.13
2023-05-01T17:42:33.816Z,16.02
2023-05-01T17:45:02.212Z,15.94
2023-05-01T17:47:30.636Z,15.87
2023-05-01T17:50:00.456Z,15.75
2023-05-01T17:52:29.196Z,15.66
2023-05-01T17:54:57.872Z,15.59
2023-05-01T17:57:26.865Z,15.53
2023-05-01T17:59:55.175Z,15.43
2023-05-01T18:02:23.980Z,15.33
2023-05-01T18:04:53.908Z,15.20
2023-05-01T18:07:22.428Z,15.11
2023-05-01T18:09:50.702Z,14.97
2023-05-01T18:12:19.813Z,14.87
2023-05-01T18:14:48.084Z,14.81
2023-05-01T18:17:16.798Z,14.76
2023-05-01T18:19:45.249Z,14.69
2023-05-01T18:22:13.598Z,14.61
2023-05-01T18:24:42.033Z,14.51
2023-05-01T18:27:10.188Z,14.43
2023-05-01T18:29:38.609Z,14.36
2023-05-01T18:32:07.259Z,14.27
2023-05-01T18:34:35.681Z,14.18
2023-05-01T18:37:03.922Z,14.09
2023-05-01T18:39:32.195Z,13.93
2023-05-01T18:42:00.421Z,13.82
2023-05-01T18:44:28.650Z,13.76
2023-05-01T18:46:57.117Z,13.75
2023-05-01T18:49:25.434Z,13.73
2023-05-01T18:51:53.588Z,13.71
2023-05-01T18:54:23.131Z,13.60
2023-05-01T18:56:51.368Z,13.57
2023-05-01T18:59:19.688Z,13.49
2023-05-01T19:01:50.811Z,13.46
2023-05-01T19:04:19.485Z,13.47
2023-05-01T19:06:47.858Z,13.43
2023-05-01T19:09:16.452Z,13.41
2023-05-01T19:11:45.030Z,13.38
2023-05-01T19:14:13.373Z,13.39
2023-05-01T19:16:41.851Z,13.32
2023-05-01T19:19:10.197Z,13.26
2023-05-01T19:21:38.755Z,13.11
2023-05-01T19:24:08.001Z,13.09
2023-05-01T19:26:36.156Z,13.06
2023-05-01T19:29:04.409Z,13.05
2023-05-01T19:31:33.304Z,13.01
2023-05-01T19:34:01.596Z,12.99
2023-05-01T19:36:29.798Z,12.94
2023-05-01T19:38:58.133Z,12.84
2023-05-01T19:41:26.620Z,12.82
2023-05-01T19:43:55.125Z,12.77
2023-05-01T19:46:23.651Z,12.76
2023-05-01T19:48:51.970Z,12.69
2023-05-01T19:51:20.042Z,12.63
2023-05-01T19:53:48.428Z,12.45
2023-05-01T19:56:16.769Z,12.24
2023-05-01T19:58:45.083Z,12.24
2023-05-01T20:01:13.367Z,12.15
2023-05-01T20:03:41.872Z,12.18
2023-05-01T20:06:10.573Z,12.17
2023-05-01T20:08:38.844Z,12.09
2023-05-01T20:11:07.505Z,12.03
2023-05-01T20:13:35.752Z,12.00
2023-05-01T20:16:04.181Z,11.91
2023-05-01T20:18:33.051Z,11.83
2023-05-01T20:21:01.240Z,11.79
2023-05-01T20:23:29.708Z,11.71
2023-05-01T20:25:58.018Z,11.63
2023-05-01T20:28:27.102Z,11.51
2023-05-01T20:30:56.160Z,11.45
2023-05-01T20:33:24.807Z,11.44
2023-05-01T20:35:53.252Z,11.42
2023-05-01T20:38:22.094Z,11.42
2023-05-01T20:40:51.050Z,11.38
2023-05-01T20:43:19.522Z,11.38
2023-05-01T20:45:47.979Z,11.41
2023-05-01T20:48:16.481Z,11.35
2023-05-01T20:50:45.720Z,11.38
2023-05-01T20:53:14.064Z,11.41
2023-05-01T20:55:42.340Z,11.38
2023-05-01T20:58:10.968Z,11.39
2023-05-01T21:00:39.307Z,11.39
2023-05-01T21:03:09.599Z,11.39
2023-05-01T21:05:38.037Z,11.41
2023-05-01T21:08:07.109Z,11.39
2023-05-01T21:10:36.581Z,11.37
2023-05-01T21:13:04.793Z,11.35
2023-05-01T21:15:34.319Z,11.31
2023-05-01T21:18:02.833Z,11.26
2023-05-01T21:20:35.058Z,11.20
2023-05-01T21:23:03.474Z,11.15
2023-05-01T21:25:32.166Z,11.12
2023-05-01T21:28:02.365Z,11.08
2023-05-01T21:30:34.645Z,11.04
2023-05-01T21:33:06.296Z,10.96
2023-05-01T21:35:34.657Z,10.91
2023-05-01T21:38:04.484Z,10.84
2023-05-01T21:40:37.297Z,10.85
2023-05-01T21:43:06.870Z,10.82
2023-05-01T21:45:40.632Z,10.80
2023-05-01T21:48:09.548Z,10.76
2023-05-01T21:50:38.394Z,10.75
2023-05-01T21:53:07.759Z,10.74
2023-05-01T21:55:36.087Z,10.73
2023-05-01T21:58:04.826Z,10.72
2023-05-01T22:00:33.968Z,10.75
2023-05-01T22:03:07.125Z,10.77
2023-05-01T22:05:35.501Z,10.76
2023-05-01T22:08:03.677Z,10.71
2023-05-01T22:10:32.059Z,10.70
2023-05-01T22:13:00.266Z,10.70
2023-05-01T22:15:28.714Z,10.68
2023-05-01T22:17:57.178Z,10.65
2023-05-01T22:20:25.490Z,10.62
2023-05-01T22:22:53.754Z,10.58
2023-05-01T22:25:22.247Z,10.52
2023-05-01T22:27:50.724Z,10.48
2023-05-01T22:30:18.926Z,10.44
2023-05-01T22:32:47.252Z,10.37
2023-05-01T22:35:16.073Z,10.34
2023-05-01T22:37:44.189Z,10.28
2023-05-01T22:40:12.635Z,10.25
2023-05-01T22:42:41.001Z,10.25
2023-05-01T22:45:10.217Z,10.27
2023-05-01T22:47:38.548Z,10.28
2023-05-01T22:50:07.902Z,10.27
2023-05-01T22:52:36.580Z,10.28
2023-05-01T22:55:05.528Z,10.29
2023-05-01T22:57:33.761Z,10.31
2023-05-01T23:00:02.574Z,10.34
2023-05-01T23:02:33.314Z,10.36
2023-05-01T23:05:01.663Z,10.37
2023-05-01T23:07:29.927Z,10.38
2023-05-01T23:09:58.525Z,10.39
2023-05-01T23:12:27.922Z,10.40
2023-05-01T23:14:56.225Z,10.40
2023-05-01T23:17:27.335Z,10.44
2023-05-01T23:19:58.678Z,10.48
2023-05-01T23:22:30.454Z,10.55
2023-05-01T23:24:58.730Z,10.58
2023-05-01T23:27:27.627Z,10.58
2023-05-01T23:29:58.343Z,10.57
2023-05-01T23:32:29.608Z,10.54
2023-05-01T23:35:07.545Z,10.55
2023-05-01T23:37:36.439Z,10.56
2023-05-01T23:40:05.208Z,10.56
2023-05-01T23:42:33.856Z,10.57
2023-05-01T23:45:02.697Z,10.56
2023-05-01T23:47:31.309Z,10.55
2023-05-01T23:49:59.977Z,10.52
2023-05-01T23:52:28.751Z,10.50
2023-05-01T23:54:57.020Z,10.45
2023-05-01T23:57:25.202Z,10.34
2023-05-01T23:59:53.294Z,10.23
